Time;durP1;ratioP1;P1;durP2;ratioP2;P2;SDS_P1;SDS_P2;PMS_P1;PMS_P2;Temp;Humidity;BMP_temperature;BMP_pressure;BME280_temperature;BME280_humidity;BME280_pressure;Samples;Min_cycle;Max_cycle;Signal;HPM_P1;HPM_P2
2021/12/10 00:00:48;;;;;;;16.67;9.00;;;4.70;92.10;;;;;;5032901;28;20022;-71
2021/12/10 00:03:20;;;;;;;11.23;8.48;;;4.70;92.20;;;;;;5031254;28;20029;-70
2021/12/10 00:05:58;;;;;;;13.50;9.43;;;4.70;92.10;;;;;;5032759;28;20042;-70
2021/12/10 00:08:26;;;;;;;10.63;8.23;;;4.70;92.10;;;;;;5032600;28;20030;-70
2021/12/10 00:10:55;;;;;;;11.63;8.83;;;4.70;92.10;;;;;;5032987;28;20540;-70
2021/12/10 00:13:23;;;;;;;11.93;8.00;;;4.70;92.20;;;;;;5031900;28;20025;-72
2021/12/10 00:15:51;;;;;;;10.57;8.27;;;4.70;92.00;;;;;;5032954;28;20507;-70
2021/12/10 00:18:18;;;;;;;14.10;8.87;;;4.70;92.10;;;;;;5032913;28;20386;-70
2021/12/10 00:20:46;;;;;;;15.23;8.83;;;4.70;92.10;;;;;;5032693;28;20029;-70
2021/12/10 00:23:16;;;;;;;11.83;9.13;;;4.70;92.10;;;;;;5032807;28;20030;-69
2021/12/10 00:25:48;;;;;;;12.77;9.00;;;4.70;92.10;;;;;;5032900;28;20040;-70
2021/12/10 00:28:22;;;;;;;17.77;9.47;;;4.70;92.20;;;;;;5032949;28;20021;-70
2021/12/10 00:31:02;;;;;;;15.33;9.57;;;4.70;92.20;;;;;;5032640;28;20025;-70
2021/12/10 00:33:32;;;;;;;14.20;9.70;;;4.70;92.20;;;;;;5032775;28;20382;-70
2021/12/10 00:35:58;;;;;;;13.20;9.17;;;4.70;92.20;;;;;;5031578;28;20107;-70
2021/12/10 00:38:25;;;;;;;16.40;9.13;;;4.70;92.20;;;;;;5032829;28;20057;-70
2021/12/10 00:40:51;;;;;;;13.20;9.07;;;4.70;92.30;;;;;;5032879;28;20063;-70
2021/12/10 00:43:17;;;;;;;14.20;8.60;;;4.60;92.30;;;;;;5032798;28;20025;-70
2021/12/10 00:45:43;;;;;;;14.83;8.83;;;4.70;92.20;;;;;;5032752;28;20490;-70
2021/12/10 00:48:09;;;;;;;12.10;8.47;;;4.70;92.20;;;;;;5032894;28;20031;-70
2021/12/10 00:50:46;;;;;;;11.70;8.20;;;4.60;92.20;;;;;;5032652;28;20112;-71
2021/12/10 00:53:13;;;;;;;9.90;7.40;;;4.70;92.30;;;;;;5032720;28;20032;-70
2021/12/10 00:55:39;;;;;;;10.67;7.57;;;4.70;92.20;;;;;;5032638;28;20112;-70
2021/12/10 00:58:05;;;;;;;11.40;8.57;;;4.70;92.10;;;;;;5032744;28;20060;-71
2021/12/10 01:00:36;;;;;;;12.00;8.60;;;4.70;92.00;;;;;;5032772;28;20033;-71
2021/12/10 01:03:04;;;;;;;14.43;9.63;;;4.70;91.90;;;;;;5032269;28;20516;-70
2021/12/10 01:05:30;;;;;;;15.53;10.73;;;4.70;91.80;;;;;;5032239;28;20037;-71
2021/12/10 01:07:57;;;;;;;17.80;10.77;;;4.70;91.80;;;;;;5032559;28;20022;-70
2021/12/10 01:10:37;;;;;;;14.97;9.93;;;4.70;91.70;;;;;;5032307;28;20413;-71
2021/12/10 01:13:05;;;;;;;15.47;10.23;;;4.70;91.60;;;;;;5032247;28;20025;-70
2021/12/10 01:23:52;;;;;;;12.07;8.00;;;4.60;91.20;;;;;;5036109;28;19951;-70
2021/12/10 01:26:54;;;;;;;13.67;8.30;;;4.60;91.20;;;;;;5035828;28;20463;-70
2021/12/10 01:29:31;;;;;;;12.27;8.82;;;4.60;91.20;;;;;;5035824;28;20104;-70
2021/12/10 01:31:58;;;;;;;9.90;8.00;;;4.60;91.30;;;;;;5035754;28;20034;-70
2021/12/10 01:34:24;;;;;;;12.10;7.60;;;4.60;91.40;;;;;;5036039;28;20017;-70
2021/12/10 01:36:50;;;;;;;11.60;8.23;;;4.60;91.50;;;;;;5035920;28;20419;-70
2021/12/10 01:39:20;;;;;;;11.90;8.57;;;4.60;91.60;;;;;;5035925;28;20363;-70
2021/12/10 01:41:54;;;;;;;12.10;8.03;;;4.60;91.50;;;;;;5035774;28;20438;-70
2021/12/10 01:44:28;;;;;;;12.33;8.20;;;4.60;91.60;;;;;;5035913;28;20013;-70
2021/12/10 01:46:55;;;;;;;11.27;7.87;;;4.60;91.60;;;;;;5035892;28;20045;-70
2021/12/10 01:49:21;;;;;;;11.67;8.27;;;4.50;91.60;;;;;;5035455;28;20021;-70
2021/12/10 01:51:47;;;;;;;11.97;7.57;;;4.50;91.60;;;;;;5035533;28;20535;-70
2021/12/10 01:54:20;;;;;;;12.60;8.13;;;4.50;91.60;;;;;;5035722;28;20375;-71
2021/12/10 01:56:47;;;;;;;;;;;4.50;91.50;;;;;;5035935;28;20484;-70
2021/12/10 01:59:16;;;;;;;9.97;7.57;;;4.50;91.50;;;;;;5033265;28;19988;-70
2021/12/10 02:01:52;;;;;;;9.97;7.07;;;4.50;91.50;;;;;;5032554;28;20057;-70
2021/12/10 02:04:21;;;;;;;10.33;7.43;;;4.50;91.40;;;;;;5032002;28;20029;-70
2021/12/10 02:06:47;;;;;;;12.27;7.67;;;4.50;91.50;;;;;;5034911;28;20069;-70
2021/12/10 02:09:14;;;;;;;10.17;7.20;;;4.40;91.40;;;;;;5035072;28;20033;-70
2021/12/10 02:11:40;;;;;;;10.23;7.70;;;4.40;91.40;;;;;;5034406;28;20025;-70
2021/12/10 02:14:07;;;;;;;9.57;7.23;;;4.40;91.40;;;;;;5034732;28;20031;-70
2021/12/10 02:16:37;;;;;;;10.73;7.47;;;4.40;91.40;;;;;;5035024;28;20021;-70
2021/12/10 02:19:04;;;;;;;10.17;7.17;;;4.40;91.30;;;;;;5035161;28;20493;-70
2021/12/10 02:21:33;;;;;;;10.57;7.33;;;4.30;91.10;;;;;;5034558;28;20021;-70
2021/12/10 02:24:01;;;;;;;9.93;7.50;;;4.30;91.10;;;;;;5034671;28;20033;-70
2021/12/10 02:26:30;;;;;;;13.50;7.77;;;4.30;91.00;;;;;;5034622;28;20051;-70
2021/12/10 02:28:57;;;;;;;9.53;7.07;;;4.30;91.00;;;;;;5034917;28;20022;-70
2021/12/10 02:31:24;;;;;;;10.07;7.13;;;4.30;91.10;;;;;;5034724;28;20079;-71
2021/12/10 02:33:50;;;;;;;10.77;7.60;;;4.30;91.10;;;;;;5034811;28;20025;-70
2021/12/10 02:36:15;;;;;;;13.93;7.67;;;4.30;91.00;;;;;;5034362;28;20040;-70
2021/12/10 02:38:48;;;;;;;10.47;7.07;;;4.20;91.00;;;;;;5034801;28;20378;-70
2021/12/10 02:41:17;;;;;;;9.32;6.82;;;4.30;91.00;;;;;;5034816;28;20048;-70
2021/12/10 02:43:44;;;;;;;11.83;7.43;;;4.20;90.90;;;;;;5034605;28;20025;-70
2021/12/10 02:46:10;;;;;;;10.37;7.63;;;4.20;90.90;;;;;;5034543;28;20393;-70
2021/12/10 02:48:35;;;;;;;10.03;7.03;;;4.20;90.80;;;;;;5034423;28;20036;-70
2021/12/10 02:51:04;;;;;;;9.53;7.13;;;4.20;90.80;;;;;;5034342;28;20025;-70
2021/12/10 02:53:34;;;;;;;8.83;6.90;;;4.10;90.80;;;;;;5034155;28;20029;-70
2021/12/10 02:56:01;;;;;;;9.63;6.93;;;4.10;90.80;;;;;;5034413;28;20036;-70
2021/12/10 02:58:27;;;;;;;10.97;7.53;;;4.10;90.70;;;;;;5033999;28;20025;-70
2021/12/10 03:01:04;;;;;;;9.50;6.90;;;4.10;90.80;;;;;;5033909;28;20033;-70
2021/12/10 03:03:30;;;;;;;8.90;6.57;;;4.10;90.70;;;;;;5034090;28;20405;-71
2021/12/10 03:05:56;;;;;;;9.00;7.10;;;4.10;90.70;;;;;;5034278;28;20112;-70
2021/12/10 03:08:23;;;;;;;10.17;6.50;;;4.00;90.50;;;;;;5034199;28;20022;-70
2021/12/10 03:10:49;;;;;;;11.60;7.10;;;4.00;90.50;;;;;;5034332;28;20389;-70
2021/12/10 03:13:15;;;;;;;9.17;6.57;;;4.00;90.50;;;;;;5033915;28;20101;-70
2021/12/10 03:15:41;;;;;;;9.20;7.00;;;4.00;90.30;;;;;;5034007;28;20085;-70
2021/12/10 03:18:10;;;;;;;8.27;6.53;;;4.00;90.20;;;;;;5034092;28;20374;-70
2021/12/10 03:20:37;;;;;;;9.87;6.43;;;3.90;90.00;;;;;;5032709;28;20032;-70
2021/12/10 03:23:04;;;;;;;10.10;7.23;;;3.90;90.00;;;;;;5033735;28;20517;-71
2021/12/10 03:25:30;;;;;;;8.93;6.93;;;3.90;90.30;;;;;;5033350;28;20029;-70
2021/12/10 03:27:56;;;;;;;10.63;7.57;;;3.80;89.90;;;;;;5033638;28;20072;-70
2021/12/10 03:30:26;;;;;;;10.53;7.10;;;3.80;90.00;;;;;;5033793;28;20060;-70
2021/12/10 03:32:53;;;;;;;9.47;7.10;;;3.80;90.00;;;;;;5033807;28;20022;-70
2021/12/10 03:35:25;;;;;;;10.43;7.20;;;3.70;89.70;;;;;;5033677;28;20109;-70
2021/12/10 03:37:51;;;;;;;10.93;7.63;;;3.70;89.90;;;;;;5033114;28;20021;-70
2021/12/10 03:40:18;;;;;;;13.07;8.00;;;3.70;89.90;;;;;;5033928;28;20541;-70
2021/12/10 03:42:44;;;;;;;10.10;7.33;;;3.70;90.10;;;;;;5033772;28;20389;-70
2021/12/10 03:45:12;;;;;;;10.30;8.23;;;3.70;89.80;;;;;;5033503;28;20041;-70
2021/12/10 03:47:38;;;;;;;9.77;7.20;;;3.60;89.70;;;;;;5033534;28;20037;-70
2021/12/10 03:50:06;;;;;;;10.00;7.00;;;3.70;90.00;;;;;;5033232;28;20021;-70
2021/12/10 03:52:32;;;;;;;9.43;7.07;;;3.60;89.80;;;;;;5033552;28;20067;-70
2021/12/10 03:55:00;;;;;;;10.10;7.40;;;3.60;89.90;;;;;;5033553;28;20080;-70
2021/12/10 03:57:26;;;;;;;9.40;7.03;;;3.60;89.80;;;;;;5033239;28;20030;-70
2021/12/10 03:59:52;;;;;;;7.47;6.17;;;3.60;89.80;;;;;;5033273;28;20486;-70
2021/12/10 04:02:18;;;;;;;9.50;6.20;;;3.50;89.80;;;;;;5033071;28;20046;-70
2021/12/10 04:04:47;;;;;;;9.70;6.30;;;3.50;89.80;;;;;;5033203;28;20111;-70
2021/12/10 04:07:18;;;;;;;7.43;5.70;;;3.50;89.90;;;;;;5033251;28;20026;-70
2021/12/10 04:09:44;;;;;;;8.57;5.97;;;3.50;90.00;;;;;;5033031;28;20034;-71
2021/12/10 04:12:10;;;;;;;6.43;5.23;;;3.50;90.10;;;;;;5033196;28;20029;-71
2021/12/10 04:14:37;;;;;;;8.60;5.87;;;3.50;90.10;;;;;;5033369;28;20378;-70
2021/12/10 04:17:04;;;;;;;8.17;6.30;;;3.50;90.20;;;;;;5033184;28;20022;-70
2021/12/10 04:19:32;;;;;;;8.20;5.53;;;3.50;90.20;;;;;;5033113;28;20486;-70
2021/12/10 04:22:01;;;;;;;6.80;5.63;;;3.50;90.20;;;;;;5032894;28;20025;-70
2021/12/10 04:24:31;;;;;;;7.73;5.87;;;3.60;90.20;;;;;;5033098;28;20022;-70
2021/12/10 04:26:59;;;;;;;7.07;5.70;;;3.50;90.20;;;;;;5032956;28;20088;-71
2021/12/10 04:29:25;;;;;;;8.73;6.53;;;3.50;90.20;;;;;;5033332;28;20030;-70
2021/12/10 04:31:55;;;;;;;8.13;5.87;;;3.60;90.30;;;;;;5033146;28;20432;-70
2021/12/10 04:34:21;;;;;;;6.50;5.63;;;3.60;90.30;;;;;;5032808;28;20060;-70
2021/12/10 04:36:49;;;;;;;7.60;5.50;;;3.60;90.20;;;;;;5032854;28;20044;-70
2021/12/10 04:39:16;;;;;;;6.63;5.27;;;3.60;90.20;;;;;;5032433;28;20052;-71
2021/12/10 04:41:42;;;;;;;6.73;5.40;;;3.50;90.20;;;;;;5032711;28;20056;-70
2021/12/10 04:44:08;;;;;;;7.27;5.73;;;3.50;90.10;;;;;;5033010;28;20025;-70
2021/12/10 04:46:35;;;;;;;8.43;5.87;;;3.50;90.10;;;;;;5032752;28;20379;-70
2021/12/10 04:49:12;;;;;;;7.07;5.37;;;3.50;90.10;;;;;;5035547;28;20025;-70
2021/12/10 04:51:51;;;;;;;7.53;5.67;;;3.50;90.10;;;;;;5036603;28;20029;-70
2021/12/10 04:54:18;;;;;;;6.87;5.63;;;3.50;90.10;;;;;;5036733;28;20033;-70
2021/12/10 04:56:45;;;;;;;8.33;5.60;;;3.50;90.10;;;;;;5036588;28;20033;-70
2021/12/10 04:59:14;;;;;;;7.37;5.57;;;3.50;90.10;;;;;;5036882;28;20021;-70
2021/12/10 05:01:40;;;;;;;7.43;6.03;;;3.40;89.80;;;;;;5036481;28;20053;-70
2021/12/10 05:04:08;;;;;;;9.93;6.10;;;3.50;90.00;;;;;;5036719;28;20033;-70
2021/12/10 05:06:35;;;;;;;6.60;5.37;;;3.40;89.90;;;;;;5036514;28;20490;-70
2021/12/10 05:09:02;;;;;;;8.83;6.27;;;3.40;89.80;;;;;;5036244;28;20021;-70
2021/12/10 05:11:28;;;;;;;8.07;6.03;;;3.40;89.90;;;;;;5035787;28;20028;-70
2021/12/10 05:13:54;;;;;;;7.70;5.80;;;3.40;90.00;;;;;;5036272;28;20021;-70
2021/12/10 05:16:25;;;;;;;6.17;4.77;;;3.50;90.00;;;;;;5036320;28;20014;-70
2021/12/10 05:18:57;;;;;;;6.57;4.43;;;3.50;89.90;;;;;;5036281;28;20022;-70
2021/12/10 05:21:25;;;;;;;5.78;4.55;;;3.50;89.50;;;;;;5036013;28;20026;-71
2021/12/10 05:23:51;;;;;;;7.33;5.33;;;3.50;89.00;;;;;;5036306;28;20036;-71
2021/12/10 05:26:17;;;;;;;7.43;5.47;;;3.50;88.90;;;;;;5036135;28;20083;-70
2021/12/10 05:28:43;;;;;;;6.87;5.23;;;3.60;88.80;;;;;;5036384;28;20021;-70
2021/12/10 05:31:09;;;;;;;11.20;5.67;;;3.60;88.90;;;;;;5036099;28;20018;-70
2021/12/10 05:33:35;;;;;;;8.23;6.30;;;3.60;89.00;;;;;;5036232;28;20422;-70
2021/12/10 05:36:02;;;;;;;7.57;6.07;;;3.60;89.20;;;;;;5035809;28;20167;-70
2021/12/10 05:38:29;;;;;;;8.43;6.37;;;3.60;89.40;;;;;;5036161;28;20060;-70
2021/12/10 05:40:55;;;;;;;9.00;5.97;;;3.60;89.50;;;;;;5035939;28;20032;-70
2021/12/10 05:43:22;;;;;;;7.73;6.23;;;3.60;89.50;;;;;;5035883;28;20057;-70
2021/12/10 05:45:48;;;;;;;7.47;5.67;;;3.60;89.40;;;;;;5035581;28;20048;-70
2021/12/10 05:48:15;;;;;;;7.10;5.53;;;3.60;89.30;;;;;;5035504;28;20478;-70
2021/12/10 05:50:41;;;;;;;11.30;7.47;;;3.70;89.10;;;;;;5035607;28;20026;-71
2021/12/10 05:53:07;;;;;;;8.00;6.73;;;3.70;88.60;;;;;;5035807;28;20467;-70
2021/12/10 05:55:33;;;;;;;10.13;7.00;;;3.60;88.50;;;;;;5035410;28;20040;-70
2021/12/10 05:57:59;;;;;;;8.30;6.70;;;3.60;88.90;;;;;;5035597;28;20030;-71
2021/12/10 06:00:32;;;;;;;9.47;6.70;;;3.60;89.20;;;;;;5034994;28;20441;-71
2021/12/10 06:02:59;;;;;;;13.40;7.28;;;3.60;89.30;;;;;;5034144;28;20096;-70
2021/12/10 06:05:26;;;;;;;9.00;7.00;;;3.50;89.50;;;;;;5035613;28;20039;-69
2021/12/10 06:07:52;;;;;;;7.60;5.93;;;3.50;89.50;;;;;;5035434;28;20029;-70
2021/12/10 06:10:20;;;;;;;9.90;7.20;;;3.50;89.70;;;;;;5035355;28;20379;-70
2021/12/10 06:12:47;;;;;;;10.63;7.30;;;3.50;89.70;;;;;;5035240;28;20053;-70
2021/12/10 06:15:15;;;;;;;8.83;6.40;;;3.40;89.40;;;;;;5035264;28;20036;-70
2021/12/10 06:17:42;;;;;;;9.97;6.80;;;3.40;89.30;;;;;;5034968;28;20493;-70
2021/12/10 06:20:10;;;;;;;8.90;5.80;;;3.40;89.20;;;;;;5035173;28;20033;-70
2021/12/10 06:22:36;;;;;;;7.67;5.43;;;3.40;88.70;;;;;;5035170;28;20481;-70
2021/12/10 06:25:03;;;;;;;8.20;5.00;;;3.40;88.50;;;;;;5034873;28;20025;-70
2021/12/10 06:27:29;;;;;;;6.50;5.13;;;3.40;88.30;;;;;;5034811;28;20049;-71
2021/12/10 06:29:55;;;;;;;8.10;5.03;;;3.40;88.10;;;;;;5034801;28;20021;-70
2021/12/10 06:32:22;;;;;;;7.40;5.10;;;3.50;88.10;;;;;;5035254;28;20029;-71
2021/12/10 06:34:47;;;;;;;8.87;5.67;;;3.50;88.10;;;;;;5035121;28;20044;-70
2021/12/10 06:37:13;;;;;;;6.23;5.20;;;3.50;88.20;;;;;;5034855;28;20386;-70
2021/12/10 06:39:39;;;;;;;9.57;5.53;;;3.50;88.20;;;;;;5034536;28;20068;-70
2021/12/10 06:42:05;;;;;;;8.00;5.43;;;3.50;88.00;;;;;;5034659;28;20025;-70
2021/12/10 06:44:31;;;;;;;7.10;5.10;;;3.50;88.00;;;;;;5034529;28;20033;-70
2021/12/10 06:46:57;;;;;;;7.50;5.70;;;3.50;88.00;;;;;;5034689;28;20048;-71
2021/12/10 06:49:23;;;;;;;7.00;5.37;;;3.50;87.90;;;;;;5034774;28;20028;-70
2021/12/10 06:51:48;;;;;;;9.17;6.23;;;3.50;87.90;;;;;;5034042;28;20025;-70
2021/12/10 06:54:14;;;;;;;8.83;6.40;;;3.50;87.90;;;;;;5033512;28;20022;-71
2021/12/10 06:56:41;;;;;;;9.17;5.93;;;3.50;87.80;;;;;;5034220;28;20057;-70
2021/12/10 06:59:08;;;;;;;7.10;4.80;;;3.50;87.80;;;;;;5033961;28;20144;-72
2021/12/10 07:01:39;;;;;;;6.80;4.17;;;3.50;87.30;;;;;;5032752;28;20406;-72
2021/12/10 07:04:09;;;;;;;5.23;4.23;;;3.50;87.50;;;;;;5033535;28;20029;-71
2021/12/10 07:06:37;;;;;;;7.20;4.80;;;3.50;86.50;;;;;;5033145;28;20069;-71
2021/12/10 07:09:10;;;;;;;6.23;4.87;;;3.50;86.40;;;;;;5009365;28;20048;-71
2021/12/10 07:11:36;;;;;;;7.90;5.07;;;3.50;86.30;;;;;;5032285;28;20409;-70
2021/12/10 07:14:02;;;;;;;7.57;4.40;;;3.50;86.30;;;;;;5033712;28;20035;-70
2021/12/10 07:16:29;;;;;;;5.53;4.57;;;3.50;86.10;;;;;;5033268;28;20028;-72
2021/12/10 07:18:58;;;;;;;6.40;4.97;;;3.50;86.50;;;;;;5033687;28;20560;-72
2021/12/10 07:21:25;;;;;;;8.10;5.37;;;3.50;86.80;;;;;;5033629;28;20025;-72
2021/12/10 07:23:52;;;;;;;6.23;5.07;;;3.60;87.40;;;;;;5031215;28;20033;-72
2021/12/10 07:26:18;;;;;;;7.00;5.33;;;3.60;87.60;;;;;;5031233;28;20045;-75
2021/12/10 07:28:44;;;;;;;6.10;5.13;;;3.60;87.50;;;;;;5031481;28;20080;-72
2021/12/10 07:31:11;;;;;;;6.77;4.90;;;3.60;87.30;;;;;;5033662;28;20028;-74
2021/12/10 07:33:37;;;;;;;7.87;5.03;;;3.70;87.70;;;;;;5033900;28;20080;-73
2021/12/10 07:36:05;;;;;;;6.50;4.90;;;3.70;87.70;;;;;;5033669;28;20060;-72
2021/12/10 07:38:32;;;;;;;6.70;5.20;;;3.80;87.50;;;;;;5033288;28;20025;-71
2021/12/10 07:40:58;;;;;;;7.93;4.97;;;3.80;87.20;;;;;;5033276;28;20034;-72
2021/12/10 07:43:23;;;;;;;7.27;5.10;;;3.90;87.20;;;;;;5033698;28;20036;-72
2021/12/10 07:45:52;;;;;;;6.73;5.03;;;3.90;87.10;;;;;;5033392;28;20041;-72
2021/12/10 07:48:20;;;;;;;8.30;5.50;;;3.90;87.10;;;;;;5033709;28;20493;-73
2021/12/10 07:50:55;;;;;;;8.20;5.53;;;4.10;87.10;;;;;;5033528;28;20026;-72
2021/12/10 07:53:23;;;;;;;8.40;5.53;;;4.10;87.00;;;;;;5033437;28;20543;-74
2021/12/10 07:55:49;;;;;;;6.60;5.07;;;4.10;86.50;;;;;;5033255;28;20049;-72
2021/12/10 07:58:15;;;;;;;7.03;5.23;;;4.20;86.30;;;;;;5033336;28;20018;-73
2021/12/10 08:00:43;;;;;;;7.40;5.77;;;4.20;85.40;;;;;;5033114;28;20032;-74
2021/12/10 08:03:10;;;;;;;6.47;4.97;;;4.30;84.60;;;;;;5033090;28;20048;-75
2021/12/10 08:05:37;;;;;;;12.43;5.90;;;4.20;84.00;;;;;;5033138;28;20382;-75
2021/12/10 08:08:06;;;;;;;24.37;7.00;;;4.30;84.00;;;;;;5033295;28;20429;-74
2021/12/10 08:10:33;;;;;;;12.23;6.63;;;4.30;84.10;;;;;;5033083;28;20037;-75
2021/12/10 08:13:00;;;;;;;13.83;6.17;;;4.30;84.30;;;;;;5033259;28;20029;-75
2021/12/10 08:15:26;;;;;;;8.07;5.83;;;4.30;84.30;;;;;;5032898;28;20029;-72
2021/12/10 08:17:51;;;;;;;10.20;5.53;;;4.40;84.40;;;;;;5033173;28;20441;-75
2021/12/10 08:20:21;;;;;;;8.80;5.13;;;4.50;84.40;;;;;;5032926;28;20034;-72
2021/12/10 08:22:49;;;;;;;7.90;5.27;;;4.50;84.40;;;;;;5032454;28;20100;-72
2021/12/10 08:25:17;;;;;;;7.77;5.57;;;4.60;84.10;;;;;;5032540;28;20029;-74
2021/12/10 08:27:43;;;;;;;7.33;5.20;;;4.60;83.70;;;;;;5028588;28;20112;-72
2021/12/10 08:30:12;;;;;;;6.73;5.10;;;4.70;83.30;;;;;;5029935;28;20108;-71
2021/12/10 08:32:39;;;;;;;8.03;5.13;;;4.70;82.80;;;;;;5032555;28;20032;-72
2021/12/10 08:35:09;;;;;;;6.73;5.57;;;4.70;82.50;;;;;;5032929;28;20026;-71
2021/12/10 08:37:35;;;;;;;7.60;5.70;;;4.70;82.30;;;;;;5031439;28;20025;-72
2021/12/10 08:40:01;;;;;;;6.00;4.70;;;4.70;82.80;;;;;;5031280;28;20025;-72
2021/12/10 08:42:27;;;;;;;8.00;5.77;;;4.70;82.20;;;;;;5030203;28;20406;-72
2021/12/10 08:44:53;;;;;;;6.57;5.17;;;4.80;82.40;;;;;;5031077;28;20014;-72
2021/12/10 08:47:19;;;;;;;7.30;5.90;;;4.80;82.20;;;;;;5031378;28;20112;-73
2021/12/10 08:49:45;;;;;;;7.47;5.27;;;4.80;82.30;;;;;;5030999;28;20156;-72
2021/12/10 08:52:14;;;;;;;6.80;5.00;;;4.90;82.20;;;;;;5030968;28;20100;-72
2021/12/10 08:54:41;;;;;;;6.97;5.20;;;5.00;82.10;;;;;;5028841;28;20021;-72
2021/12/10 08:57:08;;;;;;;7.10;4.90;;;5.00;81.80;;;;;;5031023;28;20104;-73
2021/12/10 08:59:36;;;;;;;6.60;5.17;;;5.00;81.30;;;;;;5029948;28;20025;-73
2021/12/10 09:02:04;;;;;;;8.47;5.43;;;5.10;81.20;;;;;;5031576;28;20126;-73
2021/12/10 09:04:33;;;;;;;7.70;4.90;;;5.10;81.00;;;;;;5032143;28;20095;-73
2021/12/10 09:07:06;;;;;;;6.23;5.03;;;5.10;80.30;;;;;;5029169;28;20532;-75
2021/12/10 09:09:34;;;;;;;6.93;4.97;;;5.20;80.50;;;;;;5029727;28;20029;-76
2021/12/10 09:12:03;;;;;;;7.37;5.53;;;5.20;80.00;;;;;;5030868;28;20025;-75
2021/12/10 09:14:39;;;;;;;6.47;5.00;;;5.20;80.30;;;;;;5031259;28;20072;-75
2021/12/10 09:17:05;;;;;;;8.87;6.13;;;5.30;80.80;;;;;;5029274;28;20101;-76
2021/12/10 09:19:31;;;;;;;7.67;5.73;;;5.30;81.10;;;;;;5029720;28;20026;-75
2021/12/10 09:21:57;;;;;;;6.67;5.27;;;5.30;80.50;;;;;;5030884;28;20037;-75
2021/12/10 09:24:24;;;;;;;7.57;5.80;;;5.30;80.70;;;;;;5031110;28;20389;-75
2021/12/10 09:26:56;;;;;;;8.47;5.67;;;5.30;80.60;;;;;;5031069;28;20038;-75
2021/12/10 09:29:25;;;;;;;6.95;5.18;;;5.30;81.00;;;;;;5029035;28;20025;-75
2021/12/10 09:31:52;;;;;;;8.03;6.03;;;5.30;80.70;;;;;;5031033;28;20492;-75
2021/12/10 09:34:18;;;;;;;8.13;5.63;;;5.30;80.60;;;;;;5030882;28;20021;-75
2021/12/10 09:36:45;;;;;;;8.47;5.40;;;;;;;;;;5033369;28;20433;-76
2021/12/10 09:39:11;;;;;;;6.93;5.33;;;;;;;;;;5034326;28;20033;-75
2021/12/10 09:41:38;;;;;;;6.77;5.53;;;;;;;;;;5034309;28;20616;-75
2021/12/10 09:44:05;;;;;;;7.27;5.77;;;;;;;;;;5033010;28;20053;-74
2021/12/10 09:46:31;;;;;;;7.70;6.00;;;;;;;;;;5034088;28;20061;-75
2021/12/10 09:48:57;;;;;;;8.73;6.80;;;;;;;;;;5034374;28;20056;-75
2021/12/10 09:51:27;;;;;;;9.17;5.97;;;;;;;;;;5034142;28;20021;-77
2021/12/10 09:53:54;;;;;;;8.60;6.57;;;;;;;;;;5034459;28;20474;-76
2021/12/10 09:56:21;;;;;;;9.43;6.30;;;;;;;;;;5034135;28;20430;-76
2021/12/10 09:58:47;;;;;;;7.90;6.30;;;;;;;;;;5034195;28;20079;-76
2021/12/10 10:01:16;;;;;;;9.37;6.67;;;;;;;;;;5033876;28;20093;-75
2021/12/10 10:03:43;;;;;;;7.50;5.70;;;;;;;;;;5035350;28;20125;-75
2021/12/10 10:06:10;;;;;;;9.83;6.67;;;;;;;;;;5034593;28;20045;-75
2021/12/10 10:08:37;;;;;;;9.87;6.03;;;;;;;;;;5035026;28;20026;-75
2021/12/10 10:11:08;;;;;;;7.87;5.83;;;;;;;;;;5032200;28;20150;-75
2021/12/10 10:13:36;;;;;;;8.60;6.53;;;;;;;;;;5033425;28;20385;-76
2021/12/10 10:16:03;;;;;;;9.37;6.80;;;;;;;;;;5033852;28;20033;-76
2021/12/10 10:18:30;;;;;;;8.37;6.17;;;;;;;;;;5035101;28;20104;-75
2021/12/10 10:21:00;;;;;;;8.67;6.50;;;;;;;;;;5035291;28;20029;-75
2021/12/10 10:23:26;;;;;;;13.00;6.93;;;;;;;;;;5035061;28;20024;-75
2021/12/10 10:25:54;;;;;;;8.57;6.67;;;;;;;;;;5033462;28;20525;-74
2021/12/10 10:28:21;;;;;;;7.90;6.00;;;;;;;;;;5033808;28;20053;-75
2021/12/10 10:30:53;;;;;;;7.83;5.77;;;;;;;;;;5034371;28;20167;-74
2021/12/10 10:33:19;;;;;;;8.90;7.00;;;;;;;;;;5035019;28;20013;-75
2021/12/10 10:35:47;;;;;;;9.40;6.20;;;;;;;;;;5035157;28;20088;-74
2021/12/10 10:38:16;;;;;;;8.00;6.50;;;;;;;;;;5034897;28;20029;-75
2021/12/10 10:40:45;;;;;;;9.27;6.53;;;;;;;;;;5034908;28;20029;-75
2021/12/10 10:43:12;;;;;;;11.90;6.80;;;;;;;;;;5033838;28;20064;-74
2021/12/10 10:45:41;;;;;;;8.90;7.23;;;;;;;;;;5034484;28;20492;-75
2021/12/10 10:48:07;;;;;;;8.73;7.13;;;;;;;;;;5034979;28;20026;-74
2021/12/10 10:50:39;;;;;;;7.57;6.47;;;;;;;;;;5033536;28;20410;-74
2021/12/10 10:53:11;;;;;;;8.83;6.70;;;;;;;;;;5034914;28;20017;-74
2021/12/10 10:55:39;;;;;;;7.13;6.07;;;;;;;;;;5034610;28;20375;-75
2021/12/10 10:58:08;;;;;;;10.53;6.47;;;;;;;;;;5034559;28;20025;-74
2021/12/10 11:01:00;;;;;;;9.07;6.30;;;;;;;;;;5034484;28;20060;-74
2021/12/10 11:03:35;;;;;;;9.17;6.60;;;;;;;;;;5034831;28;20086;-76
2021/12/10 11:06:04;;;;;;;8.73;6.60;;;;;;;;;;5034501;28;20363;-74
2021/12/10 11:08:32;;;;;;;8.10;6.50;;;;;;;;;;5034437;28;20351;-74
2021/12/10 11:11:10;;;;;;;7.77;6.53;;;;;;;;;;5034321;28;20036;-75
2021/12/10 11:13:36;;;;;;;8.33;6.17;;;;;;;;;;5034335;28;20459;-75
2021/12/10 11:16:05;;;;;;;7.50;6.00;;;;;;;;;;5034193;28;20026;-74
2021/12/10 11:18:50;;;;;;;8.37;5.90;;;;;;;;;;5034044;28;20075;-74
2021/12/10 11:21:18;;;;;;;9.23;6.73;;;;;;;;;;5033991;28;20029;-75
2021/12/10 11:23:44;;;;;;;10.33;6.87;;;;;;;;;;5032818;28;20061;-74
2021/12/10 11:26:11;;;;;;;24.30;14.40;;;;;;;;;;5034268;28;20057;-75
2021/12/10 11:28:40;;;;;;;13.83;9.73;;;;;;;;;;5034159;28;20386;-74
2021/12/10 11:31:15;;;;;;;14.33;11.20;;;;;;;;;;5034027;28;20033;-74
2021/12/10 11:33:48;;;;;;;11.23;7.80;;;;;;;;;;5033861;28;20084;-74
2021/12/10 11:36:17;;;;;;;8.63;6.80;;;;;;;;;;5034123;28;20021;-74
2021/12/10 11:38:46;;;;;;;7.43;5.80;;;;;;;;;;5033849;28;20037;-74
2021/12/10 11:41:12;;;;;;;7.47;6.37;;;;;;;;;;5033944;28;20033;-75
2021/12/10 11:43:52;;;;;;;10.33;6.07;;;;;;;;;;5033484;28;20029;-74
2021/12/10 11:46:43;;;;;;;8.63;6.47;;;;;;;;;;5033192;28;20038;-74
2021/12/10 11:49:27;;;;;;;9.10;5.80;;;;;;;;;;5032182;28;20024;-75
2021/12/10 11:51:55;;;;;;;8.73;6.07;;;;;;;;;;5031973;28;20029;-75
2021/12/10 11:54:24;;;;;;;7.63;6.27;;;;;;;;;;5032065;28;20105;-75
2021/12/10 11:56:55;;;;;;;10.10;6.33;;;;;;;;;;5029506;28;20079;-75
2021/12/10 11:59:32;;;;;;;8.20;5.03;;;;;;;;;;5028903;28;20022;-76
2021/12/10 12:02:09;;;;;;;7.00;5.30;;;;;;;;;;5027614;28;20049;-75
2021/12/10 12:04:35;;;;;;;8.17;6.23;;;;;;;;;;5029032;28;20079;-75
2021/12/10 12:07:16;;;;;;;8.10;5.73;;;;;;;;;;5031998;28;20498;-75
2021/12/10 12:09:44;;;;;;;6.60;5.27;;;;;;;;;;5030173;28;20040;-76
2021/12/10 12:12:11;;;;;;;6.97;4.80;;;;;;;;;;5032776;28;20028;-76
2021/12/10 12:14:40;;;;;;;6.33;4.63;;;;;;;;;;5031747;28;20477;-76
2021/12/10 12:17:07;;;;;;;7.30;4.90;;;;;;;;;;5031594;28;20032;-75
2021/12/10 12:19:36;;;;;;;7.00;4.97;;;;;;;;;;5032634;28;20017;-75
2021/12/10 12:27:57;;;;;;;6.20;4.50;;;;;;;;;;5001838;28;20444;-75
2021/12/10 12:30:23;;;;;;;7.40;4.57;;;;;;;;;;5030715;28;20025;-76
2021/12/10 12:32:53;;;;;;;5.17;3.97;;;;;;;;;;5032976;28;20033;-75
2021/12/10 12:35:24;;;;;;;5.80;4.17;;;;;;;;;;5032907;28;20025;-75
2021/12/10 12:37:51;;;;;;;6.97;4.10;;;;;;;;;;5032615;28;20025;-75
2021/12/10 12:40:17;;;;;;;5.30;4.07;;;;;;;;;;5032603;28;20025;-75
2021/12/10 12:42:48;;;;;;;5.93;3.73;;;;;;;;;;5032852;28;20500;-75
2021/12/10 12:45:19;;;;;;;7.47;4.00;;;;;;;;;;5031502;28;20539;-76
2021/12/10 12:47:50;;;;;;;5.80;4.37;;;;;;;;;;5032797;28;20029;-75
2021/12/10 12:50:16;;;;;;;6.23;4.23;;;;;;;;;;5032816;28;20053;-76
2021/12/10 12:52:44;;;;;;;7.43;5.00;;;;;;;;;;5031034;28;20069;-75
2021/12/10 12:55:19;;;;;;;7.23;4.77;;;;;;;;;;5032694;28;20433;-75
2021/12/10 12:57:48;;;;;;;8.90;4.87;;;;;;;;;;5031569;28;20032;-84
2021/12/10 13:00:17;;;;;;;7.40;4.50;;;;;;;;;;5032290;28;20156;-81
2021/12/10 13:02:44;;;;;;;6.60;4.77;;;;;;;;;;5031659;28;20129;-79
2021/12/10 13:05:10;;;;;;;5.73;4.20;;;;;;;;;;5032203;28;20478;-78
2021/12/10 13:07:37;;;;;;;6.40;4.50;;;;;;;;;;5032573;28;20036;-80
2021/12/10 13:10:08;;;;;;;5.93;4.63;;;;;;;;;;5033708;28;20128;-76
2021/12/10 13:15:10;;;;;;;6.90;4.87;;;;;;;;;;5036555;28;20029;-79
2021/12/10 13:17:38;;;;;;;8.40;5.63;;;;;;;;;;5036401;28;20129;-79
2021/12/10 13:20:09;;;;;;;10.40;5.87;;;;;;;;;;5036357;28;20052;-78
2021/12/10 13:22:35;;;;;;;8.57;6.20;;;;;;;;;;5034969;28;20466;-79
2021/12/10 13:25:04;;;;;;;8.77;6.17;;;;;;;;;;5036056;28;20025;-79
2021/12/10 13:27:30;;;;;;;7.67;5.93;;;;;;;;;;5036165;28;20036;-79
2021/12/10 13:29:56;;;;;;;8.87;5.37;;;;;;;;;;5036229;28;20512;-78
2021/12/10 13:32:22;;;;;;;10.27;6.57;;;;;;;;;;5036016;28;20025;-76
2021/12/10 13:34:49;;;;;;;8.80;6.07;;;;;;;;;;5036150;28;20105;-76
2021/12/10 13:37:15;;;;;;;9.37;6.17;;;;;;;;;;5036100;28;20470;-70
2021/12/10 13:39:43;;;;;;;9.80;6.33;;;;;;;;;;5035807;28;20083;-76
2021/12/10 13:42:10;;;;;;;10.70;6.30;;;;;;;;;;5035835;28;20059;-74
2021/12/10 13:44:43;;;;;;;9.20;5.77;;;;;;;;;;5036148;28;20417;-70